sensor_id;sensor_type;location;lat;lon;timestamp;pressure;altitude;pressure_sealevel;temperature;humidity
73105;BME280;61296;50.526;30.792;2022-11-11T00:08:30;100353.94;;;7.78;96.23
73105;BME280;61296;50.526;30.792;2022-11-11T00:24:22;100410.31;;;8.12;95.61
73105;BME280;61296;50.526;30.792;2022-11-11T00:40:19;100330.34;;;7.52;96.23
73105;BME280;61296;50.526;30.792;2022-11-11T00:55:58;100335.94;;;7.35;97.89
73105;BME280;61296;50.526;30.792;2022-11-11T01:11:36;100302.81;;;6.86;99.59
73105;BME280;61296;50.526;30.792;2022-11-11T01:27:15;100353.28;;;7.18;100.00
73105;BME280;61296;50.526;30.792;2022-11-11T01:43:20;100353.16;;;7.15;100.00
73105;BME280;61296;50.526;30.792;2022-11-11T01:59:02;100317.28;;;6.87;100.00
73105;BME280;61296;50.526;30.792;2022-11-11T02:14:44;100318.44;;;6.86;100.00
73105;BME280;61296;50.526;30.792;2022-11-11T02:30:23;100343.66;;;6.91;100.00
73105;BME280;61296;50.526;30.792;2022-11-11T06:59:07;100600.75;;;7.68;100.00
73105;BME280;61296;50.526;30.792;2022-11-11T07:14:46;100669.16;;;8.15;100.00
73105;BME280;61296;50.526;30.792;2022-11-11T07:30:24;100678.44;;;8.22;100.00
73105;BME280;61296;50.526;30.792;2022-11-11T07:46:02;100597.47;;;7.83;100.00
73105;BME280;61296;50.526;30.792;2022-11-11T08:01:40;100645.16;;;8.11;100.00
73105;BME280;61296;50.526;30.792;2022-11-11T08:17:18;100636.81;;;8.29;100.00
73105;BME280;61296;50.526;30.792;2022-11-11T08:33:04;100607.66;;;8.03;100.00
73105;BME280;61296;50.526;30.792;2022-11-11T08:48:42;100746.03;;;8.98;100.00
73105;BME280;61296;50.526;30.792;2022-11-11T09:04:21;100648.09;;;8.57;100.00
73105;BME280;61296;50.526;30.792;2022-11-11T09:19:59;100646.91;;;8.66;100.00
73105;BME280;61296;50.526;30.792;2022-11-11T09:35:37;100616.41;;;8.47;100.00
73105;BME280;61296;50.526;30.792;2022-11-11T09:51:21;100601.63;;;8.60;100.00
73105;BME280;61296;50.526;30.792;2022-11-11T10:07:06;100695.63;;;9.36;100.00
73105;BME280;61296;50.526;30.792;2022-11-11T10:22:52;100641.75;;;9.19;100.00
73105;BME280;61296;50.526;30.792;2022-11-11T10:38:58;100598.78;;;8.90;99.66
73105;BME280;61296;50.526;30.792;2022-11-11T10:54:43;100592.75;;;8.96;96.94
73105;BME280;61296;50.526;30.792;2022-11-11T11:10:34;100617.75;;;9.28;97.80
73105;BME280;61296;50.526;30.792;2022-11-11T11:26:15;100671.09;;;9.64;95.42
73105;BME280;61296;50.526;30.792;2022-11-11T11:41:53;100592.91;;;9.24;93.38
73105;BME280;61296;50.526;30.792;2022-11-11T12:45:41;100736.56;;;10.44;88.77
73105;BME280;61296;50.526;30.792;2022-11-11T13:17:39;100731.75;;;10.28;85.84
73105;BME280;61296;50.526;30.792;2022-11-11T13:33:20;100709.16;;;9.98;85.62
73105;BME280;61296;50.526;30.792;2022-11-11T13:49:01;100776.59;;;10.08;86.88
73105;BME280;61296;50.526;30.792;2022-11-11T14:20:42;100784.06;;;9.62;89.03
73105;BME280;61296;50.526;30.792;2022-11-11T15:08:21;100812.88;;;9.35;90.66
73105;BME280;61296;50.526;30.792;2022-11-11T15:24:06;100843.47;;;9.46;90.60
73105;BME280;61296;50.526;30.792;2022-11-11T15:39:50;100819.81;;;9.20;90.68
73105;BME280;61296;50.526;30.792;2022-11-11T15:55:32;100849.03;;;9.37;91.48
73105;BME280;61296;50.526;30.792;2022-11-11T16:11:17;100733.81;;;8.45;92.57
73105;BME280;61296;50.526;30.792;2022-11-11T16:26:57;100876.22;;;9.09;93.23
73105;BME280;61296;50.526;30.792;2022-11-11T16:42:35;100788.41;;;8.21;93.62
73105;BME280;61296;50.526;30.792;2022-11-11T16:58:21;100819.31;;;8.30;94.26
73105;BME280;61296;50.526;30.792;2022-11-11T17:14:00;100753.38;;;7.88;94.96
73105;BME280;61296;50.526;30.792;2022-11-11T17:29:39;100752.44;;;7.84;95.13
73105;BME280;61296;50.526;30.792;2022-11-11T18:01:48;100704.19;;;7.62;94.98
73105;BME280;61296;50.526;30.792;2022-11-11T18:17:26;100721.56;;;7.66;95.05
73105;BME280;61296;50.526;30.792;2022-11-11T18:33:04;100736.88;;;7.59;94.80
73105;BME280;61296;50.526;30.792;2022-11-11T18:48:45;100819.31;;;7.83;94.47
73105;BME280;61296;50.526;30.792;2022-11-11T19:04:23;100736.31;;;7.10;94.93
73105;BME280;61296;50.526;30.792;2022-11-11T19:20:02;100766.38;;;7.27;95.01
73105;BME280;61296;50.526;30.792;2022-11-11T19:35:41;100823.19;;;7.56;95.00
73105;BME280;61296;50.526;30.792;2022-11-11T19:51:21;100772.66;;;6.93;95.90
73105;BME280;61296;50.526;30.792;2022-11-11T20:06:59;100888.44;;;7.63;95.48
73105;BME280;61296;50.526;30.792;2022-11-11T20:22:40;100803.72;;;6.97;95.29
73105;BME280;61296;50.526;30.792;2022-11-11T20:38:19;100835.38;;;6.81;95.75
73105;BME280;61296;50.526;30.792;2022-11-11T20:53:58;100871.28;;;6.88;96.43
73105;BME280;61296;50.526;30.792;2022-11-11T21:09:36;100811.53;;;6.64;97.12
73105;BME280;61296;50.526;30.792;2022-11-11T21:25:14;100763.81;;;6.22;96.90
73105;BME280;61296;50.526;30.792;2022-11-11T21:41:00;100824.34;;;6.46;96.83
73105;BME280;61296;50.526;30.792;2022-11-11T21:56:38;100827.50;;;6.31;96.75
73105;BME280;61296;50.526;30.792;2022-11-11T22:12:16;100765.69;;;5.82;96.58
73105;BME280;61296;50.526;30.792;2022-11-11T22:27:55;100939.94;;;6.86;96.11
73105;BME280;61296;50.526;30.792;2022-11-11T22:43:38;100910.78;;;6.73;95.55
73105;BME280;61296;50.526;30.792;2022-11-11T22:59:18;100857.22;;;6.32;94.94
73105;BME280;61296;50.526;30.792;2022-11-11T23:14:56;100770.22;;;5.86;95.19
73105;BME280;61296;50.526;30.792;2022-11-11T23:30:34;100782.44;;;5.89;95.29
73105;BME280;61296;50.526;30.792;2022-11-11T23:46:13;100887.78;;;6.34;95.08
